createdAt,value
2022-10-19T00:01:22.419Z,2.78
2022-10-19T00:05:04.528Z,2.20
2022-10-19T00:08:46.647Z,2.42
2022-10-19T00:12:28.625Z,2.03
2022-10-19T00:16:13.489Z,2.35
2022-10-19T00:19:55.477Z,2.72
2022-10-19T00:23:37.647Z,2.47
2022-10-19T00:27:19.515Z,3.10
2022-10-19T00:31:09.723Z,2.75
2022-10-19T00:34:51.587Z,1.95
2022-10-19T00:38:33.446Z,3.05
2022-10-19T00:42:15.303Z,2.22
2022-10-19T00:45:57.115Z,2.15
2022-10-19T00:49:43.623Z,2.47
2022-10-19T00:53:28.610Z,2.65
2022-10-19T00:57:11.863Z,2.50
2022-10-19T01:00:53.724Z,2.80
2022-10-19T01:04:38.772Z,2.53
2022-10-19T01:08:20.715Z,2.78
2022-10-19T01:12:16.231Z,2.33
2022-10-19T01:16:39.144Z,2.22
2022-10-19T01:20:32.731Z,2.15
2022-10-19T01:24:37.117Z,2.92
2022-10-19T01:28:40.297Z,2.75
2022-10-19T01:32:30.719Z,3.00
2022-10-19T01:36:30.607Z,2.70
2022-10-19T01:40:22.445Z,3.05
2022-10-19T01:44:18.917Z,3.28
2022-10-19T01:48:22.040Z,2.92
2022-10-19T01:52:06.480Z,3.03
2022-10-19T01:55:51.995Z,3.05
2022-10-19T01:59:34.922Z,2.92
2022-10-19T02:03:18.260Z,3.67
2022-10-19T02:07:02.776Z,2.83
2022-10-19T02:10:45.827Z,3.30
2022-10-19T02:14:32.960Z,2.92
2022-10-19T02:18:19.844Z,3.45
2022-10-19T02:25:43.493Z,3.13
2022-10-19T02:29:25.412Z,3.17
2022-10-19T02:33:08.128Z,3.42
2022-10-19T02:36:50.106Z,2.55
2022-10-19T02:40:38.156Z,3.47
2022-10-19T02:44:27.219Z,3.20
2022-10-19T02:48:13.714Z,3.40
2022-10-19T02:51:59.940Z,3.33
2022-10-19T02:55:42.494Z,2.97
2022-10-19T02:59:25.366Z,3.03
2022-10-19T03:03:07.259Z,3.42
2022-10-19T03:06:49.093Z,2.22
2022-10-19T03:10:30.954Z,3.47
2022-10-19T03:14:12.753Z,2.53
2022-10-19T03:17:54.872Z,2.47
2022-10-19T03:21:36.674Z,2.13
2022-10-19T03:25:18.803Z,2.85
2022-10-19T03:29:00.654Z,2.45
2022-10-19T03:32:42.535Z,3.00
2022-10-19T03:36:25.621Z,2.97
2022-10-19T03:40:08.223Z,3.30
2022-10-19T03:43:50.295Z,2.92
2022-10-19T03:47:32.463Z,3.40
2022-10-19T03:51:36.364Z,2.22
2022-10-19T03:55:18.291Z,2.45
2022-10-19T03:59:01.358Z,3.50
2022-10-19T04:02:43.147Z,2.80
2022-10-19T04:06:31.254Z,2.50
2022-10-19T04:10:13.058Z,3.08
2022-10-19T04:13:58.582Z,3.50
2022-10-19T04:17:40.502Z,2.13
2022-10-19T04:21:33.210Z,2.42
2022-10-19T04:25:17.050Z,2.63
2022-10-19T04:29:04.310Z,2.55
2022-10-19T04:32:51.867Z,2.72
2022-10-19T04:36:34.525Z,3.20
2022-10-19T04:40:17.321Z,2.30
2022-10-19T04:44:02.538Z,2.10
2022-10-19T04:47:48.723Z,2.70
2022-10-19T04:51:30.720Z,2.43
2022-10-19T04:55:12.576Z,2.28
2022-10-19T04:58:58.796Z,3.33
2022-10-19T05:02:44.932Z,2.60
2022-10-19T05:06:27.118Z,3.43
2022-10-19T05:10:10.388Z,2.70
2022-10-19T05:13:52.204Z,2.67
2022-10-19T05:17:34.225Z,2.78
2022-10-19T05:21:16.299Z,2.53
2022-10-19T05:24:59.633Z,3.13
2022-10-19T05:28:41.663Z,3.00
2022-10-19T05:32:23.678Z,3.08
2022-10-19T05:36:26.389Z,2.97
2022-10-19T05:40:08.984Z,2.78
2022-10-19T05:43:59.331Z,3.10
2022-10-19T05:47:41.223Z,2.50
2022-10-19T05:51:24.647Z,3.17
2022-10-19T05:55:07.165Z,2.67
2022-10-19T05:58:49.980Z,2.63
2022-10-19T06:02:32.205Z,3.20
2022-10-19T06:06:14.139Z,3.15
2022-10-19T06:09:55.989Z,3.22
2022-10-19T06:13:39.582Z,2.95
2022-10-19T06:17:22.651Z,3.42
2022-10-19T06:21:07.074Z,3.90
2022-10-19T06:24:49.010Z,3.80
2022-10-19T06:28:30.900Z,3.05
2022-10-19T06:32:12.774Z,3.55
2022-10-19T06:35:54.818Z,3.85
2022-10-19T06:39:36.686Z,4.13
2022-10-19T06:43:18.727Z,4.55
2022-10-19T06:47:00.587Z,4.93
2022-10-19T06:50:42.471Z,4.05
2022-10-19T06:54:25.741Z,4.63
2022-10-19T06:58:07.546Z,3.95
2022-10-19T07:01:49.472Z,4.72
2022-10-19T07:05:31.287Z,5.03
2022-10-19T07:17:13.130Z,5.30
2022-10-19T07:20:58.443Z,5.88
2022-10-19T07:24:40.259Z,5.95
2022-10-19T07:28:22.632Z,5.65
2022-10-19T07:32:04.585Z,5.85
2022-10-19T07:35:46.549Z,6.07
2022-10-19T07:39:28.668Z,5.82
2022-10-19T07:43:10.750Z,5.30
2022-10-19T07:46:52.567Z,6.05
2022-10-19T07:50:34.380Z,5.35
2022-10-19T07:54:16.268Z,5.35
2022-10-19T07:58:01.530Z,5.00
2022-10-19T08:01:44.927Z,5.57
2022-10-19T08:05:26.873Z,4.78
2022-10-19T08:09:08.867Z,5.45
2022-10-19T08:12:50.759Z,5.30
2022-10-19T08:16:37.435Z,4.68
2022-10-19T08:20:19.418Z,3.53
2022-10-19T08:24:01.292Z,4.60
2022-10-19T08:27:43.128Z,5.45
2022-10-19T08:31:25.000Z,4.88
2022-10-19T08:35:10.062Z,3.88
2022-10-19T08:38:53.075Z,4.27
2022-10-19T08:42:57.157Z,4.47
2022-10-19T08:46:53.488Z,3.80
2022-10-19T08:50:41.343Z,3.70
2022-10-19T08:54:24.762Z,3.85
2022-10-19T08:58:38.111Z,3.53
2022-10-19T09:02:53.571Z,3.88
2022-10-19T09:06:57.529Z,3.60
2022-10-19T09:10:42.214Z,3.42
2022-10-19T09:14:59.171Z,4.20
2022-10-19T09:18:42.431Z,3.42
2022-10-19T09:22:32.711Z,3.00
2022-10-19T09:26:20.392Z,3.88
2022-10-19T09:30:05.959Z,3.97
2022-10-19T09:33:55.607Z,5.10
2022-10-19T09:37:42.477Z,3.17
2022-10-19T09:41:25.264Z,3.05
2022-10-19T09:45:25.159Z,2.83
2022-10-19T09:49:07.035Z,3.47
2022-10-19T09:52:57.378Z,3.78
2022-10-19T09:56:40.754Z,2.78
2022-10-19T10:00:25.785Z,3.35
2022-10-19T10:04:09.712Z,2.92
2022-10-19T10:07:55.177Z,2.90
2022-10-19T10:11:39.497Z,2.33
2022-10-19T10:15:35.078Z,2.28
2022-10-19T10:19:18.947Z,3.10
2022-10-19T10:23:06.126Z,3.00
2022-10-19T10:27:02.327Z,3.22
2022-10-19T10:30:46.751Z,3.25
2022-10-19T10:34:45.663Z,3.90
2022-10-19T10:38:41.511Z,3.22
2022-10-19T10:42:30.864Z,3.33
2022-10-19T10:46:20.781Z,3.20
2022-10-19T10:50:06.559Z,3.28
2022-10-19T10:53:48.735Z,3.10
2022-10-19T10:57:44.863Z,2.70
2022-10-19T11:01:35.512Z,2.75
2022-10-19T11:05:38.926Z,2.72
2022-10-19T11:09:31.356Z,2.53
2022-10-19T11:13:35.969Z,2.45
2022-10-19T11:17:30.837Z,3.00
2022-10-19T11:21:31.121Z,2.83
2022-10-19T11:25:25.159Z,2.78
2022-10-19T11:29:24.947Z,2.63
2022-10-19T11:33:26.990Z,2.33
2022-10-19T11:37:23.977Z,2.10
2022-10-19T11:41:17.855Z,2.65
2022-10-19T11:45:03.495Z,2.23
2022-10-19T11:48:54.745Z,2.53
2022-10-19T11:52:53.484Z,2.22
2022-10-19T11:57:02.871Z,2.40
2022-10-19T12:01:23.613Z,2.05
2022-10-19T12:05:11.411Z,1.92
2022-10-19T12:09:05.113Z,11.68
2022-10-19T12:12:51.554Z,2.58
2022-10-19T12:16:41.138Z,2.58
2022-10-19T12:20:34.928Z,2.40
2022-10-19T12:24:23.997Z,2.75
2022-10-19T12:28:05.942Z,2.30
2022-10-19T12:31:49.069Z,2.03
2022-10-19T12:35:48.099Z,2.10
2022-10-19T12:39:35.561Z,2.08
2022-10-19T12:43:31.948Z,1.92
2022-10-19T12:47:20.040Z,2.22
2022-10-19T12:51:07.443Z,2.08
2022-10-19T12:54:49.267Z,2.35
2022-10-19T12:58:55.065Z,2.38
2022-10-19T13:02:40.158Z,2.72
2022-10-19T13:06:25.047Z,1.90
2022-10-19T13:10:18.315Z,1.97
2022-10-19T13:14:19.886Z,2.03
2022-10-19T13:18:40.452Z,2.08
2022-10-19T13:22:27.812Z,2.53
2022-10-19T13:26:39.183Z,2.13
2022-10-19T13:30:39.068Z,2.13
2022-10-19T13:34:24.159Z,1.95
2022-10-19T13:38:12.049Z,1.95
2022-10-19T13:41:56.410Z,2.10
2022-10-19T13:45:41.268Z,2.20
2022-10-19T13:49:32.772Z,2.15
2022-10-19T13:53:44.135Z,1.98
2022-10-19T13:57:50.057Z,2.05
2022-10-19T14:02:13.123Z,1.85
2022-10-19T14:06:03.194Z,1.98
2022-10-19T14:10:02.163Z,2.03
2022-10-19T14:13:44.397Z,1.83
2022-10-19T14:17:30.243Z,2.00
2022-10-19T14:21:12.196Z,1.75
2022-10-19T14:25:05.715Z,2.17
2022-10-19T14:28:55.146Z,2.13
2022-10-19T14:32:37.005Z,1.95
2022-10-19T14:36:21.735Z,1.88
2022-10-19T14:40:31.700Z,1.80
2022-10-19T14:44:42.496Z,1.70
2022-10-19T14:48:24.321Z,1.55
2022-10-19T14:52:06.323Z,1.80
2022-10-19T14:55:50.747Z,2.28
2022-10-19T14:59:47.831Z,2.63
2022-10-19T15:03:31.029Z,2.20
2022-10-19T15:07:43.207Z,2.13
2022-10-19T15:11:39.860Z,1.92
2022-10-19T15:15:31.134Z,2.22
2022-10-19T15:19:23.900Z,2.15
2022-10-19T15:23:56.869Z,2.42
2022-10-19T15:27:46.094Z,2.63
2022-10-19T15:31:29.347Z,2.60
2022-10-19T15:35:27.317Z,2.63
2022-10-19T15:39:33.081Z,2.53
2022-10-19T15:43:33.041Z,2.90
2022-10-19T15:47:14.869Z,2.95
2022-10-19T15:50:57.875Z,2.92
2022-10-19T15:54:39.714Z,2.15
2022-10-19T15:58:21.676Z,2.67
2022-10-19T16:02:13.501Z,2.85
2022-10-19T16:05:55.432Z,2.42
2022-10-19T16:09:37.319Z,2.63
2022-10-19T16:13:19.117Z,2.22
2022-10-19T16:17:00.973Z,2.55
2022-10-19T16:20:42.879Z,2.58
2022-10-19T16:24:24.753Z,2.70
2022-10-19T16:28:06.577Z,2.53
2022-10-19T16:31:48.440Z,2.88
2022-10-19T16:35:30.290Z,2.60
2022-10-19T16:39:12.229Z,2.60
2022-10-19T16:42:56.820Z,3.33
2022-10-19T16:46:39.307Z,3.17
2022-10-19T16:50:21.175Z,2.97
2022-10-19T16:54:04.645Z,2.50
2022-10-19T16:57:46.418Z,2.33
2022-10-19T17:01:29.344Z,2.97
2022-10-19T17:05:11.192Z,3.08
2022-10-19T17:12:56.899Z,3.28
2022-10-19T17:16:39.147Z,3.00
2022-10-19T17:20:21.046Z,3.47
2022-10-19T17:24:03.285Z,3.08
2022-10-19T17:27:45.124Z,3.17
2022-10-19T17:31:28.091Z,3.72
2022-10-19T17:35:10.131Z,3.42
2022-10-19T17:38:57.283Z,4.32
2022-10-19T17:42:39.088Z,3.33
2022-10-19T17:46:24.700Z,3.53
2022-10-19T17:50:06.879Z,3.55
2022-10-19T17:53:49.519Z,3.70
2022-10-19T17:57:31.374Z,4.10
2022-10-19T18:01:14.236Z,4.35
2022-10-19T18:04:56.041Z,4.18
2022-10-19T18:08:43.163Z,3.95
2022-10-19T18:12:25.014Z,3.90
2022-10-19T18:16:14.849Z,4.25
2022-10-19T18:19:56.711Z,3.70
2022-10-19T18:23:38.892Z,3.75
2022-10-19T18:27:20.706Z,4.25
2022-10-19T18:31:14.126Z,4.30
2022-10-19T18:34:55.935Z,5.38
2022-10-19T18:38:38.748Z,4.57
2022-10-19T18:42:20.566Z,5.47
2022-10-19T18:46:02.483Z,4.70
2022-10-19T18:49:44.386Z,5.50
2022-10-19T18:53:26.192Z,5.03
2022-10-19T18:57:08.006Z,5.15
2022-10-19T19:00:49.835Z,5.70
2022-10-19T19:04:31.654Z,4.30
2022-10-19T19:08:13.527Z,5.15
2022-10-19T19:11:58.073Z,6.47
2022-10-19T19:15:39.904Z,5.30
2022-10-19T19:19:24.403Z,5.45
2022-10-19T19:23:06.277Z,5.30
2022-10-19T19:26:55.005Z,5.88
2022-10-19T19:30:44.990Z,6.40
2022-10-19T19:34:26.914Z,6.03
2022-10-19T19:38:08.795Z,6.63
2022-10-19T19:41:50.713Z,6.05
2022-10-19T19:45:32.620Z,6.35
2022-10-19T19:49:14.861Z,7.72
2022-10-19T19:53:00.218Z,6.82
2022-10-19T19:56:42.690Z,7.55
2022-10-19T20:00:25.679Z,6.30
2022-10-19T20:04:07.639Z,7.00
2022-10-19T20:07:50.527Z,6.90
2022-10-19T20:11:32.687Z,8.05
2022-10-19T20:15:16.620Z,8.43
2022-10-19T20:19:14.664Z,7.88
2022-10-19T20:22:57.226Z,7.72
2022-10-19T20:26:39.804Z,8.30
2022-10-19T20:30:21.724Z,8.70
2022-10-19T20:34:08.161Z,7.88
2022-10-19T20:37:52.973Z,9.00
2022-10-19T20:41:36.477Z,9.07
2022-10-19T20:45:18.489Z,9.02
2022-10-19T20:49:01.952Z,9.25
2022-10-19T20:52:43.787Z,8.93
2022-10-19T20:56:29.646Z,9.73
2022-10-19T21:00:12.131Z,10.50
2022-10-19T21:03:59.281Z,10.98
2022-10-19T21:07:41.142Z,9.95
2022-10-19T21:11:31.525Z,9.60
2022-10-19T21:15:13.368Z,9.73
2022-10-19T21:18:55.860Z,9.65
2022-10-19T21:22:40.050Z,10.55
2022-10-19T21:26:24.551Z,9.40
2022-10-19T21:30:06.918Z,11.02
2022-10-19T21:33:49.551Z,10.25
2022-10-19T21:37:31.371Z,10.55
2022-10-19T21:41:15.947Z,10.93
2022-10-19T21:45:06.247Z,10.75
2022-10-19T21:48:55.198Z,12.40
2022-10-19T21:52:37.027Z,11.35
2022-10-19T21:56:19.153Z,11.50
2022-10-19T22:00:01.015Z,10.80
2022-10-19T22:03:42.962Z,10.60
2022-10-19T22:07:24.798Z,11.05
2022-10-19T22:11:08.785Z,11.48
2022-10-19T22:14:50.689Z,10.82
2022-10-19T22:18:33.225Z,10.70
2022-10-19T22:22:15.076Z,11.45
2022-10-19T22:25:57.119Z,10.38
2022-10-19T22:29:39.002Z,10.77
2022-10-19T22:33:21.078Z,11.38
2022-10-19T22:37:02.900Z,10.32
2022-10-19T22:41:22.798Z,11.60
2022-10-19T22:45:05.154Z,12.27
2022-10-19T22:48:47.004Z,12.23
2022-10-19T22:52:28.924Z,12.60
2022-10-19T22:56:14.009Z,11.43
2022-10-19T22:59:55.838Z,10.93
2022-10-19T23:03:40.394Z,11.68
2022-10-19T23:07:22.239Z,10.85
2022-10-19T23:11:04.747Z,10.68
2022-10-19T23:14:46.585Z,10.85
2022-10-19T23:18:32.006Z,10.75
2022-10-19T23:22:13.866Z,11.13
2022-10-19T23:26:17.958Z,10.32
2022-10-19T23:29:59.843Z,10.32
2022-10-19T23:33:42.951Z,10.57
2022-10-19T23:37:24.822Z,9.85
2022-10-19T23:41:07.203Z,9.98
2022-10-19T23:44:49.025Z,9.35
2022-10-19T23:48:30.874Z,9.73
2022-10-19T23:52:12.679Z,9.27
2022-10-19T23:56:07.029Z,9.85
2022-10-19T23:59:48.825Z,10.55
